createdAt,value
2022-10-13T00:00:43.566Z,96.69
2022-10-13T00:03:11.275Z,97.88
2022-10-13T00:05:44.402Z,99.48
2022-10-13T00:08:12.347Z,100.00
2022-10-13T00:10:48.642Z,100.00
2022-10-13T00:13:18.172Z,100.00
2022-10-13T00:15:45.802Z,100.00
2022-10-13T00:18:13.597Z,100.00
2022-10-13T00:20:41.949Z,100.00
2022-10-13T00:23:10.115Z,100.00
2022-10-13T00:25:40.925Z,100.00
2022-10-13T00:28:08.310Z,100.00
2022-10-13T00:30:36.280Z,100.00
2022-10-13T00:33:03.782Z,100.00
2022-10-13T00:35:32.308Z,100.00
2022-10-13T00:37:59.704Z,100.00
2022-10-13T00:40:30.507Z,100.00
2022-10-13T00:42:59.318Z,100.00
2022-10-13T00:45:27.247Z,100.00
2022-10-13T00:48:01.074Z,100.00
2022-10-13T00:50:38.597Z,100.00
2022-10-13T00:53:06.743Z,100.00
2022-10-13T00:55:35.096Z,100.00
2022-10-13T00:58:05.500Z,100.00
2022-10-13T01:00:33.642Z,100.00
2022-10-13T01:03:02.518Z,100.00
2022-10-13T01:05:30.004Z,100.00
2022-10-13T01:07:57.692Z,100.00
2022-10-13T01:10:27.910Z,100.00
2022-10-13T01:13:04.312Z,100.00
2022-10-13T01:15:40.816Z,100.00
2022-10-13T01:18:21.264Z,100.00
2022-10-13T01:20:50.824Z,100.00
2022-10-13T01:23:21.699Z,100.00
2022-10-13T01:26:07.906Z,100.00
2022-10-13T01:28:47.455Z,99.85
2022-10-13T01:31:21.180Z,99.35
2022-10-13T01:33:54.555Z,96.60
2022-10-13T01:36:32.047Z,98.80
2022-10-13T01:39:10.409Z,97.82
2022-10-13T01:41:38.775Z,99.84
2022-10-13T01:44:09.238Z,100.00
2022-10-13T01:46:36.897Z,100.00
2022-10-13T01:49:09.916Z,99.81
2022-10-13T01:51:39.045Z,98.53
2022-10-13T01:54:06.432Z,95.21
2022-10-13T01:56:33.778Z,97.38
2022-10-13T01:59:02.435Z,99.21
2022-10-13T02:01:50.512Z,99.86
2022-10-13T02:04:24.504Z,100.00
2022-10-13T02:06:58.145Z,100.00
2022-10-13T02:09:44.629Z,100.00
2022-10-13T02:12:13.469Z,98.67
2022-10-13T02:14:41.424Z,100.00
2022-10-13T02:17:08.904Z,100.00
2022-10-13T02:19:40.481Z,99.68
2022-10-13T02:22:08.372Z,100.00
2022-10-13T02:24:36.112Z,100.00
2022-10-13T02:27:05.518Z,100.00
2022-10-13T02:29:32.925Z,98.91
2022-10-13T02:32:03.436Z,100.00
2022-10-13T02:34:30.828Z,100.00
2022-10-13T02:36:58.226Z,100.00
2022-10-13T02:39:25.983Z,100.00
2022-10-13T02:41:55.554Z,100.00
2022-10-13T02:44:24.960Z,100.00
2022-10-13T02:46:52.426Z,99.67
2022-10-13T02:49:20.356Z,100.00
2022-10-13T02:51:47.778Z,100.00
2022-10-13T02:54:15.180Z,100.00
2022-10-13T02:56:42.425Z,100.00
2022-10-13T02:59:09.741Z,100.00
2022-10-13T03:01:41.349Z,99.47
2022-10-13T03:04:08.929Z,100.00
2022-10-13T03:06:36.283Z,100.00
2022-10-13T03:09:03.911Z,98.79
2022-10-13T03:11:32.201Z,100.00
2022-10-13T03:13:59.632Z,100.00
2022-10-13T03:16:26.922Z,100.00
2022-10-13T03:18:54.283Z,100.00
2022-10-13T03:21:21.837Z,100.00
2022-10-13T03:23:49.619Z,100.00
2022-10-13T03:26:17.046Z,100.00
2022-10-13T03:28:52.267Z,100.00
2022-10-13T03:31:20.412Z,100.00
2022-10-13T03:33:47.831Z,100.00
2022-10-13T03:36:15.283Z,100.00
2022-10-13T03:38:43.104Z,97.63
2022-10-13T03:41:12.710Z,100.00
2022-10-13T03:43:40.340Z,100.00
2022-10-13T03:46:07.854Z,100.00
2022-10-13T03:48:36.105Z,100.00
2022-10-13T03:51:08.433Z,100.00
2022-10-13T03:53:35.939Z,99.13
2022-10-13T03:56:03.884Z,100.00
2022-10-13T03:58:34.128Z,100.00
2022-10-13T04:01:05.468Z,100.00
2022-10-13T04:03:33.529Z,100.00
2022-10-13T04:06:02.163Z,100.00
2022-10-13T04:08:30.212Z,100.00
2022-10-13T04:11:00.907Z,100.00
2022-10-13T04:13:28.248Z,100.00
2022-10-13T04:15:55.701Z,100.00
2022-10-13T04:18:23.085Z,100.00
2022-10-13T04:20:51.238Z,100.00
2022-10-13T04:23:18.818Z,100.00
2022-10-13T04:25:48.449Z,100.00
2022-10-13T04:28:15.904Z,100.00
2022-10-13T04:30:47.160Z,100.00
2022-10-13T04:33:17.009Z,100.00
2022-10-13T04:35:45.579Z,100.00
2022-10-13T04:38:13.458Z,100.00
2022-10-13T04:40:41.172Z,100.00
2022-10-13T04:43:08.632Z,100.00
2022-10-13T04:45:38.345Z,100.00
2022-10-13T04:48:05.718Z,100.00
2022-10-13T04:50:33.234Z,100.00
2022-10-13T04:53:00.940Z,100.00
2022-10-13T16:38:22.478Z,63.88
2022-10-13T16:40:50.256Z,65.69
2022-10-13T16:43:17.562Z,65.95
2022-10-13T16:45:59.994Z,66.57
2022-10-13T16:48:28.053Z,66.31
2022-10-13T16:50:55.750Z,65.56
2022-10-13T16:53:23.473Z,67.73
2022-10-13T16:55:51.260Z,68.26
2022-10-13T16:58:18.604Z,67.37
2022-10-13T17:00:45.953Z,68.14
2022-10-13T17:03:13.248Z,70.79
2022-10-13T17:05:40.723Z,71.33
2022-10-13T17:08:08.022Z,73.17
2022-10-13T17:10:35.560Z,68.84
2022-10-13T17:13:03.145Z,70.17
2022-10-13T17:15:32.718Z,69.80
2022-10-13T17:18:00.366Z,68.27
2022-10-13T17:20:27.986Z,70.88
2022-10-13T17:22:55.851Z,73.30
2022-10-13T17:25:23.335Z,76.21
2022-10-13T17:27:51.189Z,75.30
2022-10-13T17:30:19.085Z,71.65
2022-10-13T17:32:46.395Z,74.27
2022-10-13T17:35:18.095Z,76.38
2022-10-13T17:37:45.499Z,72.68
2022-10-13T17:40:13.974Z,72.87
2022-10-13T17:42:41.432Z,72.77
2022-10-13T17:45:09.157Z,74.22
2022-10-13T17:47:36.741Z,75.56
2022-10-13T17:50:04.261Z,73.87
2022-10-13T17:52:31.664Z,74.56
2022-10-13T17:54:59.008Z,73.64
2022-10-13T17:57:29.699Z,74.75
2022-10-13T18:00:04.426Z,74.96
2022-10-13T18:02:41.632Z,77.07
2022-10-13T18:05:09.319Z,78.80
2022-10-13T18:07:36.845Z,76.79
2022-10-13T18:10:05.346Z,76.08
2022-10-13T18:12:32.982Z,79.38
2022-10-13T18:15:00.437Z,80.79
2022-10-13T18:17:27.880Z,79.57
2022-10-13T18:19:55.785Z,79.68
2022-10-13T18:22:23.114Z,80.15
2022-10-13T18:24:56.718Z,81.42
2022-10-13T18:27:24.575Z,80.09
2022-10-13T18:29:52.545Z,82.37
2022-10-13T18:32:22.206Z,83.38
2022-10-13T18:34:49.552Z,82.84
2022-10-13T18:37:17.042Z,85.55
2022-10-13T18:39:44.871Z,86.42
2022-10-13T18:42:12.728Z,86.44
2022-10-13T18:44:40.106Z,86.57
2022-10-13T18:47:09.373Z,86.98
2022-10-13T18:49:37.363Z,85.18
2022-10-13T18:52:05.267Z,86.46
2022-10-13T18:54:32.648Z,85.92
2022-10-13T18:57:00.041Z,87.05
2022-10-13T18:59:29.937Z,86.44
2022-10-13T19:01:58.143Z,88.07
2022-10-13T19:04:26.365Z,86.84
2022-10-13T19:06:54.800Z,89.09
2022-10-13T19:09:22.875Z,88.63
2022-10-13T19:11:50.387Z,84.35
2022-10-13T19:14:19.922Z,87.75
2022-10-13T19:16:47.237Z,88.73
2022-10-13T19:19:15.387Z,88.18
2022-10-13T19:21:43.247Z,89.86
2022-10-13T19:24:11.260Z,90.69
2022-10-13T19:26:38.912Z,90.20
2022-10-13T19:29:07.793Z,88.35
2022-10-13T19:31:35.964Z,87.14
2022-10-13T19:34:07.555Z,86.11
2022-10-13T19:36:36.209Z,88.55
2022-10-13T19:39:05.868Z,88.61
2022-10-13T19:41:33.345Z,87.74
2022-10-13T19:44:00.887Z,86.83
2022-10-13T19:46:39.385Z,84.00
2022-10-13T19:49:06.759Z,85.70
2022-10-13T19:51:35.744Z,85.42
2022-10-13T19:54:03.548Z,85.68
2022-10-13T19:56:31.738Z,86.43
2022-10-13T19:58:59.662Z,84.31
2022-10-13T20:01:28.023Z,81.59
2022-10-13T20:03:56.011Z,85.84
2022-10-13T20:06:23.352Z,86.78
2022-10-13T20:08:53.061Z,87.29
2022-10-13T20:11:23.700Z,90.22
2022-10-13T20:13:53.396Z,91.07
2022-10-13T20:16:40.561Z,91.66
2022-10-13T20:19:11.590Z,92.34
2022-10-13T20:21:41.374Z,92.40
2022-10-13T20:24:12.005Z,90.19
2022-10-13T20:26:41.174Z,89.78
2022-10-13T20:29:08.632Z,87.95
2022-10-13T20:31:37.209Z,87.48
2022-10-13T20:34:04.727Z,92.19
2022-10-13T20:36:37.509Z,93.25
2022-10-13T20:39:06.373Z,94.90
2022-10-13T20:41:35.169Z,93.83
2022-10-13T20:44:02.622Z,83.89
2022-10-13T20:46:32.975Z,88.62
2022-10-13T20:49:15.828Z,91.94
2022-10-13T20:51:43.374Z,93.50
2022-10-13T20:54:11.435Z,94.78
2022-10-13T20:56:40.030Z,95.14
2022-10-13T20:59:08.523Z,95.86
2022-10-13T21:01:37.084Z,95.28
2022-10-13T21:04:04.583Z,94.57
2022-10-13T21:06:33.248Z,93.26
2022-10-13T21:09:03.885Z,93.90
2022-10-13T21:11:31.292Z,92.19
2022-10-13T21:13:59.000Z,91.27
2022-10-13T21:16:27.997Z,93.11
2022-10-13T21:18:56.173Z,94.88
2022-10-13T21:21:24.692Z,96.98
2022-10-13T21:23:52.773Z,95.99
2022-10-13T21:26:21.944Z,89.74
2022-10-13T21:28:50.080Z,94.51
2022-10-13T21:31:20.314Z,95.09
2022-10-13T21:33:47.614Z,94.27
2022-10-13T21:36:18.986Z,94.23
2022-10-13T21:38:47.428Z,94.59
2022-10-13T21:41:14.872Z,95.04
2022-10-13T21:43:43.493Z,96.13
2022-10-13T21:46:11.814Z,96.46
2022-10-13T21:48:44.108Z,95.57
2022-10-13T21:51:11.566Z,97.70
2022-10-13T21:53:38.992Z,96.41
2022-10-13T21:56:07.655Z,95.95
2022-10-13T21:58:35.239Z,95.02
2022-10-13T22:01:02.872Z,96.90
2022-10-13T22:03:30.361Z,95.30
2022-10-13T22:05:57.786Z,94.71
2022-10-13T22:08:37.549Z,96.32
2022-10-13T22:11:13.246Z,96.39
2022-10-13T22:13:41.001Z,96.70
2022-10-13T22:16:10.736Z,97.07
2022-10-13T22:18:45.820Z,97.25
2022-10-13T22:21:16.158Z,97.16
2022-10-13T22:23:43.780Z,96.35
2022-10-13T22:26:11.319Z,98.32
2022-10-13T22:28:38.702Z,97.78
2022-10-13T22:31:06.714Z,99.51
2022-10-13T22:33:34.956Z,97.39
2022-10-13T22:36:09.382Z,97.83
2022-10-13T22:38:37.042Z,99.36
2022-10-13T22:41:06.764Z,99.80
2022-10-13T22:43:34.215Z,100.00
2022-10-13T22:46:15.205Z,99.95
2022-10-13T22:48:42.640Z,100.00
2022-10-13T22:51:12.198Z,100.00
2022-10-13T22:53:39.619Z,100.00
2022-10-13T22:56:07.595Z,100.00
2022-10-13T22:58:35.678Z,100.00
2022-10-13T23:01:07.199Z,100.00
2022-10-13T23:03:34.925Z,100.00
2022-10-13T23:06:02.537Z,99.74
2022-10-13T23:08:30.199Z,99.58
2022-10-13T23:11:00.222Z,97.74
2022-10-13T23:13:27.640Z,97.33
2022-10-13T23:16:02.852Z,99.72
2022-10-13T23:18:34.831Z,100.00
2022-10-13T23:21:06.957Z,100.00
2022-10-13T23:23:34.475Z,100.00
2022-10-13T23:26:02.724Z,100.00
2022-10-13T23:28:30.526Z,100.00
2022-10-13T23:31:02.308Z,100.00
2022-10-13T23:33:30.014Z,100.00
2022-10-13T23:35:57.774Z,100.00
2022-10-13T23:38:25.257Z,100.00
2022-10-13T23:40:52.730Z,100.00
2022-10-13T23:43:21.392Z,100.00
2022-10-13T23:45:48.688Z,100.00
2022-10-13T23:48:16.120Z,100.00
2022-10-13T23:50:43.458Z,100.00
2022-10-13T23:53:10.825Z,100.00
2022-10-13T23:55:38.827Z,100.00
2022-10-13T23:58:06.208Z,100.00
